Time;durP1;ratioP1;P1;durP2;ratioP2;P2;SDS_P1;SDS_P2;PMS_P1;PMS_P2;Temp;Humidity;BMP_temperature;BMP_pressure;BME280_temperature;BME280_humidity;BME280_pressure;Samples;Min_cycle;Max_cycle;Signal;HPM_P1;HPM_P2
2021/11/09 00:01:54;;;;;;;18.08;11.35;;;9.70;99.90;;;;;;5072403;28;20374;-82
2021/11/09 00:04:28;;;;;;;24.70;11.48;;;9.80;99.90;;;;;;5054145;28;20741;-83
2021/11/09 00:09:57;;;;;;;19.70;10.90;;;9.70;99.90;;;;;;5033679;28;20411;-84
2021/11/09 00:12:27;;;;;;;18.98;11.52;;;9.70;99.90;;;;;;5051432;28;20395;-83
2021/11/09 00:14:57;;;;;;;20.60;11.35;;;9.70;99.90;;;;;;5034109;28;20407;-82
2021/11/09 00:17:23;;;;;;;19.33;11.50;;;9.70;99.90;;;;;;5051630;28;20403;-82
2021/11/09 00:19:49;;;;;;;17.90;10.73;;;9.70;99.90;;;;;;5050352;28;20460;-83
2021/11/09 00:22:15;;;;;;;19.33;10.77;;;9.90;99.90;;;;;;5046799;28;20382;-83
2021/11/09 00:24:41;;;;;;;19.08;11.85;;;9.80;99.90;;;;;;5053701;28;20409;-82
2021/11/09 00:27:06;;;;;;;20.70;11.17;;;9.80;99.90;;;;;;5040396;28;20454;-83
2021/11/09 00:29:32;;;;;;;12.70;9.77;;;9.90;99.90;;;;;;5032578;28;20418;-84
2021/11/09 00:31:58;;;;;;;20.20;11.45;;;9.90;99.90;;;;;;5033871;28;20392;-83
2021/11/09 00:34:23;;;;;;;15.73;10.10;;;9.90;99.90;;;;;;5050658;28;20406;-84
2021/11/09 00:36:49;;;;;;;14.07;9.57;;;9.90;99.90;;;;;;5050332;28;20391;-84
2021/11/09 00:39:14;;;;;;;12.88;9.52;;;10.00;99.90;;;;;;5032899;28;20439;-82
2021/11/09 00:41:41;;;;;;;17.95;10.93;;;10.00;99.90;;;;;;5050745;28;20387;-85
2021/11/09 00:44:07;;;;;;;19.08;11.07;;;10.00;99.90;;;;;;5050469;28;20395;-84
2021/11/09 00:46:33;;;;;;;22.50;11.55;;;10.00;99.90;;;;;;5050665;28;20379;-84
2021/11/09 00:48:59;;;;;;;16.52;11.15;;;10.00;99.90;;;;;;5032497;28;20400;-84
2021/11/09 00:51:25;;;;;;;21.73;11.30;;;10.00;99.90;;;;;;5050772;28;20388;-83
2021/11/09 00:53:51;;;;;;;17.53;11.20;;;9.90;99.90;;;;;;5050508;28;20391;-82
2021/11/09 00:56:16;;;;;;;18.73;11.40;;;10.00;99.90;;;;;;5032967;28;20433;-84
2021/11/09 00:58:42;;;;;;;23.08;11.95;;;10.00;99.90;;;;;;5050784;28;20391;-85
2021/11/09 01:01:08;;;;;;;20.87;11.47;;;10.00;99.90;;;;;;5043775;28;20767;-83
2021/11/09 01:03:33;;;;;;;16.33;11.03;;;10.00;99.90;;;;;;5032810;28;20734;-84
2021/11/09 01:05:59;;;;;;;22.23;12.13;;;9.90;99.90;;;;;;5049635;28;20453;-83
2021/11/09 01:08:24;;;;;;;21.38;12.40;;;9.90;99.90;;;;;;5032057;28;20758;-82
2021/11/09 01:10:52;;;;;;;22.10;12.10;;;9.90;99.90;;;;;;5049826;28;21495;-83
2021/11/09 01:13:21;;;;;;;21.80;11.88;;;9.90;99.90;;;;;;5050575;28;20384;-81
2021/11/09 01:15:50;;;;;;;17.00;12.07;;;9.90;99.90;;;;;;5016708;28;20392;-82
2021/11/09 01:18:25;;;;;;;17.55;11.93;;;9.90;99.90;;;;;;5050511;28;20411;-83
2021/11/09 01:20:52;;;;;;;19.40;11.95;;;9.90;99.90;;;;;;5032191;28;20406;-83
2021/11/09 01:23:18;;;;;;;20.13;12.55;;;9.80;99.90;;;;;;5032303;28;20387;-82
2021/11/09 01:25:44;;;;;;;21.27;11.20;;;9.80;99.90;;;;;;5032182;28;21001;-83
2021/11/09 01:28:10;;;;;;;19.87;12.27;;;9.90;99.90;;;;;;5031891;28;20399;-81
2021/11/09 01:30:37;;;;;;;17.38;11.13;;;9.90;99.90;;;;;;5051150;28;20903;-81
2021/11/09 01:33:03;;;;;;;19.42;11.80;;;9.80;99.90;;;;;;5032760;28;20535;-83
2021/11/09 01:35:28;;;;;;;18.37;11.13;;;9.80;99.90;;;;;;5049383;28;20403;-81
2021/11/09 01:37:54;;;;;;;18.43;11.23;;;9.80;99.90;;;;;;5050199;28;20396;-83
2021/11/09 01:40:24;;;;;;;16.80;11.38;;;9.90;99.90;;;;;;5031151;28;20387;-82
2021/11/09 01:42:51;;;;;;;19.83;11.57;;;9.90;99.90;;;;;;5012848;28;20401;-81
2021/11/09 01:45:18;;;;;;;23.58;11.63;;;9.80;99.90;;;;;;5046408;28;21152;-84
2021/11/09 01:47:45;;;;;;;16.98;10.85;;;9.80;99.90;;;;;;5049972;28;20415;-81
2021/11/09 01:50:14;;;;;;;19.38;11.25;;;9.80;99.90;;;;;;5049186;28;20402;-81
2021/11/09 01:52:40;;;;;;;20.27;11.43;;;9.90;99.90;;;;;;5049436;28;20411;-84
2021/11/09 01:55:08;;;;;;;17.02;10.50;;;9.90;99.90;;;;;;5049657;28;20404;-82
2021/11/09 01:57:34;;;;;;;19.90;11.00;;;9.90;99.90;;;;;;5049588;28;20388;-82
2021/11/09 02:00:03;;;;;;;20.02;10.55;;;10.00;99.90;;;;;;5030857;28;20467;-81
2021/11/09 02:02:30;;;;;;;22.85;11.20;;;10.00;99.90;;;;;;5049278;28;20421;-81
2021/11/09 02:04:55;;;;;;;19.27;10.77;;;9.90;99.90;;;;;;5049332;28;20392;-81
2021/11/09 02:07:21;;;;;;;20.65;11.35;;;9.80;99.90;;;;;;5031582;28;20948;-81
2021/11/09 02:09:48;;;;;;;23.60;11.60;;;9.80;99.90;;;;;;5031199;28;20427;-82
2021/11/09 02:12:13;;;;;;;21.60;11.18;;;9.80;99.90;;;;;;5031669;28;20470;-81
2021/11/09 02:14:39;;;;;;;22.87;11.63;;;9.70;99.90;;;;;;5049147;28;20486;-81
2021/11/09 02:17:05;;;;;;;20.80;11.43;;;9.70;99.90;;;;;;5049505;28;20905;-82
2021/11/09 02:19:31;;;;;;;21.23;11.73;;;9.80;99.90;;;;;;5031072;28;20476;-83
2021/11/09 02:21:57;;;;;;;20.42;11.52;;;9.70;99.90;;;;;;5048930;28;20897;-80
2021/11/09 02:24:23;;;;;;;21.23;11.13;;;9.80;99.90;;;;;;5030958;28;20395;-82
2021/11/09 02:26:49;;;;;;;16.77;10.80;;;9.80;99.90;;;;;;5030525;28;20921;-85
2021/11/09 02:29:14;;;;;;;17.42;10.20;;;9.80;99.90;;;;;;5031276;28;20815;-84
2021/11/09 02:31:40;;;;;;;21.33;11.23;;;9.80;99.90;;;;;;5049140;28;20395;-82
2021/11/09 02:34:06;;;;;;;25.27;10.53;;;9.70;99.90;;;;;;5030909;28;20399;-82
2021/11/09 02:36:31;;;;;;;20.20;10.67;;;9.70;99.90;;;;;;5030499;28;20411;-83
2021/11/09 02:38:57;;;;;;;17.75;10.50;;;9.70;99.90;;;;;;5048462;28;20450;-84
2021/11/09 02:41:23;;;;;;;18.25;9.80;;;9.70;99.90;;;;;;5031217;28;20380;-82
2021/11/09 02:43:50;;;;;;;23.50;11.45;;;9.80;99.90;;;;;;5031331;28;20414;-82
2021/11/09 02:49:07;;;;;;;21.00;11.00;;;9.70;99.90;;;;;;5048851;28;20412;-82
2021/11/09 02:51:40;;;;;;;20.80;10.00;;;9.70;99.90;;;;;;5030576;28;20395;-83
2021/11/09 03:02:12;;;;;;;19.63;10.30;;;9.70;99.90;;;;;;5047077;28;20399;-84
2021/11/09 03:07:33;;;;;;;17.02;10.38;;;9.70;99.90;;;;;;5048752;28;20391;-83
2021/11/09 03:10:03;;;;;;;18.58;10.93;;;9.70;99.90;;;;;;5030217;28;20442;-83
2021/11/09 03:12:35;;;;;;;21.17;9.75;;;9.70;99.90;;;;;;5030583;28;20399;-82
2021/11/09 03:15:03;;;;;;;21.43;10.17;;;9.80;99.90;;;;;;5030110;28;20898;-81
2021/11/09 03:17:51;;;;;;;18.00;9.40;;;9.80;99.90;;;;;;5029663;28;20753;-81
2021/11/09 03:20:43;;;;;;;20.58;9.52;;;9.80;99.90;;;;;;5030220;28;20396;-81
2021/11/09 03:44:56;;;;;;;19.30;8.98;;;9.70;99.90;;;;;;5047964;28;20398;-83
2021/11/09 03:47:23;;;;;;;18.42;8.65;;;9.70;99.90;;;;;;5029173;28;20890;-84
2021/11/09 03:49:50;;;;;;;19.45;9.60;;;9.70;99.90;;;;;;5047362;28;20403;-82
2021/11/09 03:52:21;;;;;;;17.30;8.75;;;9.60;99.90;;;;;;5048528;28;20383;-84
2021/11/09 03:54:51;;;;;;;15.23;8.00;;;9.60;99.90;;;;;;5029341;28;21023;-82
2021/11/09 03:57:29;;;;;;;18.63;8.68;;;9.70;99.90;;;;;;5047605;28;20411;-83
2021/11/09 04:00:07;;;;;;;21.15;9.07;;;9.70;99.90;;;;;;5028747;28;20411;-82
2021/11/09 04:05:18;;;;;;;15.57;8.70;;;9.60;99.90;;;;;;5044247;28;20457;-82
2021/11/09 04:21:10;;;;;;;20.13;9.10;;;9.60;99.90;;;;;;5050097;28;20388;-84
2021/11/09 04:38:34;;;;;;;23.77;11.57;;;9.40;99.90;;;;;;5009486;28;20472;-82
2021/11/09 04:48:48;;;;;;;21.77;11.88;;;9.40;99.90;;;;;;5051385;28;20422;-83
2021/11/09 05:01:49;;;;;;;19.35;11.45;;;9.50;99.90;;;;;;5050589;28;20402;-84
2021/11/09 05:09:41;;;;;;;23.37;11.40;;;9.50;99.90;;;;;;5050716;28;20599;-82
2021/11/09 05:12:07;;;;;;;24.80;12.10;;;9.50;99.90;;;;;;5050083;28;20407;-85
2021/11/09 05:14:34;;;;;;;21.90;12.02;;;9.60;99.90;;;;;;5050450;28;20390;-83
2021/11/09 05:17:03;;;;;;;21.35;11.45;;;9.50;99.90;;;;;;5032578;28;20380;-82
2021/11/09 05:19:46;;;;;;;19.67;11.30;;;9.50;99.90;;;;;;5048592;28;20425;-84
2021/11/09 05:22:11;;;;;;;19.60;11.03;;;9.60;99.90;;;;;;5050643;28;20902;-81
2021/11/09 05:24:42;;;;;;;21.30;11.63;;;9.60;99.90;;;;;;5049851;28;20389;-82
2021/11/09 05:27:08;;;;;;;21.05;12.13;;;9.60;99.90;;;;;;5031902;28;20506;-82
2021/11/09 05:29:34;;;;;;;17.55;10.50;;;9.60;99.90;;;;;;5050067;28;20403;-84
2021/11/09 05:32:01;;;;;;;22.73;12.03;;;9.60;99.90;;;;;;5050038;28;20491;-83
2021/11/09 05:34:28;;;;;;;22.48;11.52;;;9.70;99.90;;;;;;5050117;28;20403;-83
2021/11/09 05:36:56;;;;;;;22.30;12.00;;;9.60;99.90;;;;;;5050145;28;20412;-84
2021/11/09 05:39:30;;;;;;;22.08;12.05;;;9.70;99.90;;;;;;5050174;28;20379;-84
2021/11/09 05:41:56;;;;;;;23.90;12.35;;;9.60;99.90;;;;;;5032248;28;20815;-82
2021/11/09 05:44:22;;;;;;;19.90;11.73;;;9.70;99.90;;;;;;5050215;28;20485;-82
2021/11/09 05:46:48;;;;;;;23.92;12.32;;;9.70;99.90;;;;;;5031938;28;20897;-84
2021/11/09 05:49:14;;;;;;;22.73;12.82;;;9.70;99.90;;;;;;5051674;28;20452;-85
2021/11/09 05:51:40;;;;;;;26.15;13.57;;;9.70;99.90;;;;;;5045733;28;20397;-82
2021/11/09 05:54:06;;;;;;;18.80;12.43;;;9.60;99.90;;;;;;5051474;28;20387;-84
2021/11/09 05:56:32;;;;;;;20.05;12.18;;;9.60;99.90;;;;;;5030829;28;20491;-84
2021/11/09 05:58:58;;;;;;;23.35;12.25;;;9.60;99.90;;;;;;5036688;28;20477;-84
2021/11/09 06:01:24;;;;;;;24.63;12.85;;;9.60;99.90;;;;;;5063182;28;20483;-82
2021/11/09 06:03:50;;;;;;;24.23;13.45;;;9.50;99.90;;;;;;5031746;28;20391;-83
2021/11/09 06:06:16;;;;;;;23.27;12.77;;;9.40;99.90;;;;;;5049744;28;20392;-83
2021/11/09 06:08:42;;;;;;;24.52;12.95;;;9.30;99.90;;;;;;5031687;28;20963;-84
2021/11/09 06:11:09;;;;;;;22.02;13.48;;;9.30;99.90;;;;;;5031281;28;21155;-82
2021/11/09 06:13:35;;;;;;;20.38;12.70;;;9.30;99.90;;;;;;5053198;28;20979;-84
2021/11/09 06:16:00;;;;;;;25.63;14.15;;;9.20;99.90;;;;;;5031288;28;20470;-85
2021/11/09 06:18:27;;;;;;;26.83;13.77;;;9.20;99.90;;;;;;5055575;28;20787;-83
2021/11/09 06:20:53;;;;;;;27.20;14.93;;;9.20;99.90;;;;;;5043287;28;20755;-84
2021/11/09 06:23:19;;;;;;;26.37;14.77;;;9.20;99.90;;;;;;5049666;28;20384;-83
2021/11/09 06:25:45;;;;;;;24.95;14.35;;;9.20;99.90;;;;;;5031585;28;20380;-83
2021/11/09 06:28:17;;;;;;;25.10;15.07;;;9.20;99.90;;;;;;5049302;28;20395;-84
2021/11/09 06:30:44;;;;;;;21.83;13.70;;;9.30;99.90;;;;;;5047250;28;20873;-82
2021/11/09 06:33:10;;;;;;;22.65;14.45;;;9.20;99.90;;;;;;5031245;28;20441;-82
2021/11/09 06:35:35;;;;;;;25.65;15.07;;;9.30;99.90;;;;;;5048567;28;20792;-83
2021/11/09 06:38:01;;;;;;;24.07;14.70;;;9.30;99.90;;;;;;5031302;28;20384;-82
2021/11/09 06:40:27;;;;;;;30.37;16.83;;;9.30;99.90;;;;;;5049488;28;20433;-83
2021/11/09 06:42:52;;;;;;;26.30;15.68;;;9.40;99.90;;;;;;5030884;28;20403;-83
2021/11/09 06:45:18;;;;;;;28.70;16.27;;;9.30;99.90;;;;;;5031789;28;20750;-83
2021/11/09 06:47:44;;;;;;;25.13;15.17;;;9.40;99.90;;;;;;5031045;28;20804;-84
2021/11/09 06:50:11;;;;;;;27.58;15.60;;;9.40;99.90;;;;;;5048913;28;20502;-84
2021/11/09 06:52:36;;;;;;;35.10;18.35;;;9.40;99.90;;;;;;5031170;28;20379;-83
2021/11/09 06:55:04;;;;;;;33.55;18.98;;;9.40;99.90;;;;;;5049305;28;20438;-83
2021/11/09 06:57:30;;;;;;;32.08;18.67;;;9.40;99.90;;;;;;5031107;28;20499;-83
2021/11/09 06:59:55;;;;;;;30.77;19.03;;;9.40;99.90;;;;;;5047049;28;20753;-82
2021/11/09 07:02:21;;;;;;;34.23;20.10;;;9.40;99.90;;;;;;5047194;28;20380;-82
2021/11/09 07:04:49;;;;;;;31.45;19.65;;;9.40;99.90;;;;;;5029090;28;20426;-82
2021/11/09 07:07:15;;;;;;;31.05;20.52;;;9.40;99.90;;;;;;5029432;28;20901;-83
2021/11/09 07:09:41;;;;;;;37.33;21.25;;;9.50;99.90;;;;;;5030792;28;20421;-82
2021/11/09 07:12:07;;;;;;;34.63;21.02;;;9.40;99.90;;;;;;5048549;28;20368;-82
2021/11/09 07:14:33;;;;;;;32.10;19.50;;;9.50;99.90;;;;;;5049104;28;20445;-82
2021/11/09 07:16:59;;;;;;;34.72;20.23;;;9.50;99.90;;;;;;5030761;28;20372;-82
2021/11/09 07:19:24;;;;;;;41.73;22.37;;;9.50;99.90;;;;;;5030970;28;20472;-82
2021/11/09 07:21:50;;;;;;;56.87;23.53;;;9.50;99.90;;;;;;5048885;28;20376;-83
2021/11/09 07:24:16;;;;;;;38.40;21.45;;;9.50;99.90;;;;;;5048896;28;20376;-83
2021/11/09 07:26:43;;;;;;;34.17;19.63;;;9.50;99.90;;;;;;5048234;28;20392;-83
2021/11/09 07:29:09;;;;;;;36.92;21.70;;;9.50;99.90;;;;;;5067501;28;20510;-82
2021/11/09 07:31:36;;;;;;;34.33;22.23;;;9.50;99.90;;;;;;5043991;28;20446;-82
2021/11/09 07:34:02;;;;;;;35.60;21.25;;;9.60;99.90;;;;;;5048201;28;20383;-83
2021/11/09 07:36:28;;;;;;;37.08;22.65;;;9.60;99.90;;;;;;5029024;28;21040;-83
2021/11/09 07:38:57;;;;;;;32.53;22.05;;;9.60;99.90;;;;;;5039380;28;20878;-83
2021/11/09 07:41:24;;;;;;;29.23;20.48;;;9.70;99.90;;;;;;5046392;28;20390;-83
2021/11/09 07:43:50;;;;;;;35.97;21.05;;;9.80;99.90;;;;;;5030472;28;20371;-82
2021/11/09 07:46:16;;;;;;;30.33;19.90;;;9.80;99.90;;;;;;5029384;28;20917;-82
2021/11/09 07:48:42;;;;;;;28.40;18.05;;;9.80;99.90;;;;;;5033764;28;20918;-82
2021/11/09 07:51:07;;;;;;;31.58;19.70;;;9.90;99.90;;;;;;5072287;28;20391;-82
2021/11/09 07:53:39;;;;;;;33.83;19.80;;;9.90;99.90;;;;;;5044549;28;20388;-85
2021/11/09 08:01:18;;;;;;;31.17;19.58;;;9.90;99.90;;;;;;5020982;28;20387;-82
2021/11/09 08:06:53;;;;;;;29.52;20.40;;;10.00;99.90;;;;;;5067996;28;20401;-84
2021/11/09 08:11:44;;;;;;;30.20;18.52;;;10.20;99.90;;;;;;5072303;28;20386;-84
2021/11/09 08:14:11;;;;;;;30.40;19.52;;;10.10;99.90;;;;;;5053920;28;20421;-83
2021/11/09 08:16:37;;;;;;;34.10;20.15;;;10.10;99.90;;;;;;5054276;28;20401;-84
2021/11/09 08:19:05;;;;;;;30.53;19.60;;;10.10;99.90;;;;;;5071737;28;20382;-83
2021/11/09 08:21:34;;;;;;;27.98;19.20;;;10.20;99.90;;;;;;5071868;28;20370;-83
2021/11/09 08:24:01;;;;;;;30.77;18.77;;;10.20;99.90;;;;;;5071803;28;20377;-84
2021/11/09 08:26:27;;;;;;;27.63;17.73;;;10.30;99.90;;;;;;5071757;28;20371;-83
2021/11/09 08:28:54;;;;;;;24.58;17.55;;;10.30;99.90;;;;;;5070886;28;20904;-83
2021/11/09 08:31:22;;;;;;;29.55;18.70;;;10.50;99.90;;;;;;5044059;28;20912;-84
2021/11/09 08:33:49;;;;;;;25.95;17.15;;;10.50;99.90;;;;;;5051133;28;20392;-82
2021/11/09 08:36:21;;;;;;;27.80;17.17;;;10.70;99.90;;;;;;5060686;28;20867;-85
2021/11/09 08:38:48;;;;;;;27.40;16.73;;;10.70;99.90;;;;;;5039578;28;20396;-83
2021/11/09 08:41:14;;;;;;;25.77;16.98;;;10.70;99.90;;;;;;5033282;28;20397;-83
2021/11/09 08:43:46;;;;;;;25.17;16.15;;;10.70;99.90;;;;;;5041116;28;20398;-85
2021/11/09 08:46:17;;;;;;;23.80;16.17;;;10.80;99.90;;;;;;5055982;28;20382;-84
2021/11/09 08:48:46;;;;;;;24.85;15.40;;;10.80;99.90;;;;;;5054218;28;20439;-83
2021/11/09 08:51:13;;;;;;;23.23;14.90;;;11.00;99.90;;;;;;5051340;28;20951;-82
2021/11/09 08:56:51;;;;;;;40.60;18.02;;;11.10;99.90;;;;;;5019606;28;20379;-84
2021/11/09 09:04:49;;;;;;;24.65;15.15;;;11.00;99.90;;;;;;5052230;28;20483;-82
2021/11/09 09:07:15;;;;;;;25.27;15.45;;;10.90;99.90;;;;;;5071173;28;20418;-84
2021/11/09 09:09:41;;;;;;;21.87;14.57;;;10.90;99.90;;;;;;5037368;28;20440;-84
2021/11/09 09:12:07;;;;;;;23.02;15.65;;;10.90;99.90;;;;;;5048890;28;20383;-83
2021/11/09 09:14:33;;;;;;;22.07;14.37;;;10.80;99.90;;;;;;5032171;28;20859;-82
2021/11/09 09:17:01;;;;;;;20.52;14.00;;;10.90;99.90;;;;;;5045378;28;20376;-82
2021/11/09 09:19:31;;;;;;;25.77;14.70;;;11.00;99.90;;;;;;5070633;28;20389;-84
2021/11/09 09:22:05;;;;;;;22.38;13.82;;;11.00;99.90;;;;;;5042985;28;20401;-84
2021/11/09 09:52:35;;;;;;;21.50;13.68;;;11.20;99.90;;;;;;5050231;28;20819;-83
2021/11/09 09:57:27;;;;;;;22.52;13.57;;;11.20;99.90;;;;;;5049205;28;20900;-84
2021/11/09 09:59:55;;;;;;;19.80;13.20;;;11.30;99.90;;;;;;5049896;28;20434;-83
2021/11/09 10:02:29;;;;;;;20.33;13.70;;;11.50;99.90;;;;;;5031836;28;20909;-85
2021/11/09 10:05:04;;;;;;;20.23;12.25;;;11.70;99.90;;;;;;5047598;28;20526;-84
2021/11/09 10:07:43;;;;;;;19.70;10.93;;;11.70;99.90;;;;;;5050022;28;20892;-84
2021/11/09 10:10:11;;;;;;;21.17;11.53;;;12.00;99.90;;;;;;5051386;28;20567;-83
2021/11/09 10:12:40;;;;;;;18.48;11.48;;;11.80;99.90;;;;;;5048477;28;20753;-82
2021/11/09 10:15:21;;;;;;;21.50;12.03;;;11.90;99.90;;;;;;5045023;28;20389;-85
2021/11/09 10:17:54;;;;;;;20.50;11.63;;;12.20;99.90;;;;;;5065726;28;20407;-84
2021/11/09 10:20:24;;;;;;;20.73;11.45;;;12.30;99.90;;;;;;5037801;28;20388;-82
2021/11/09 10:23:17;;;;;;;17.30;10.60;;;12.20;99.90;;;;;;5034986;28;20387;-83
2021/11/09 10:25:43;;;;;;;18.20;10.07;;;12.40;99.90;;;;;;5054125;28;20749;-81
2021/11/09 10:28:15;;;;;;;19.10;10.45;;;12.70;99.90;;;;;;5033507;28;20877;-85
2021/11/09 10:30:49;;;;;;;19.40;9.63;;;12.70;99.90;;;;;;5050462;28;20388;-84
2021/11/09 10:33:19;;;;;;;16.35;9.20;;;12.70;99.90;;;;;;5051544;28;20382;-84
2021/11/09 10:35:47;;;;;;;18.20;8.88;;;12.60;99.90;;;;;;5033130;28;20480;-84
2021/11/09 10:38:13;;;;;;;15.25;8.52;;;12.70;99.90;;;;;;5050835;28;20379;-85
2021/11/09 10:40:50;;;;;;;15.98;8.45;;;12.60;99.90;;;;;;5032991;28;20383;-84
2021/11/09 10:43:20;;;;;;;16.95;8.18;;;12.70;99.90;;;;;;5047325;28;20462;-84
2021/11/09 10:45:47;;;;;;;17.02;8.70;;;12.70;99.90;;;;;;5049917;28;20415;-83
2021/11/09 10:48:15;;;;;;;17.52;6.95;;;12.70;99.90;;;;;;5050389;28;20371;-82
2021/11/09 10:51:07;;;;;;;13.50;6.90;;;12.70;99.90;;;;;;5032157;28;20386;-83
2021/11/09 10:53:43;;;;;;;14.75;6.75;;;12.90;99.90;;;;;;5047876;28;20387;-82
2021/11/09 11:06:33;;;;;;;9.82;4.80;;;13.10;99.90;;;;;;5050235;28;20445;-83
2021/11/09 11:09:08;;;;;;;12.67;5.90;;;13.00;99.90;;;;;;5049128;28;20416;-84
2021/11/09 11:11:38;;;;;;;13.43;4.78;;;12.90;99.90;;;;;;5024415;28;20913;-83
2021/11/09 11:14:08;;;;;;;9.88;4.55;;;12.90;99.90;;;;;;5029631;28;20891;-84
2021/11/09 11:17:00;;;;;;;10.77;4.32;;;12.90;99.90;;;;;;5037167;28;20913;-82
2021/11/09 11:19:43;;;;;;;9.40;3.72;;;13.00;99.90;;;;;;5036096;28;20505;-83
2021/11/09 11:22:20;;;;;;;8.37;4.00;;;13.00;99.90;;;;;;5031680;28;20470;-82
2021/11/09 11:24:47;;;;;;;10.45;3.42;;;13.10;99.90;;;;;;5042324;28;20390;-83
2021/11/09 11:27:14;;;;;;;10.57;3.58;;;13.00;99.90;;;;;;5037533;28;20387;-83
2021/11/09 11:29:41;;;;;;;10.47;3.53;;;12.80;99.90;;;;;;5045467;28;20408;-84
2021/11/09 11:32:11;;;;;;;10.55;3.53;;;12.80;99.90;;;;;;5030418;28;20766;-82
2021/11/09 11:34:37;;;;;;;10.73;3.40;;;13.10;99.90;;;;;;5028710;28;20915;-82
2021/11/09 11:37:03;;;;;;;10.55;3.17;;;12.90;99.90;;;;;;5032941;28;20387;-82
2021/11/09 11:39:34;;;;;;;7.95;2.38;;;12.80;99.90;;;;;;5034189;28;20386;-83
2021/11/09 11:42:09;;;;;;;7.60;2.60;;;12.80;99.90;;;;;;5042476;28;20464;-84
2021/11/09 11:44:38;;;;;;;8.20;3.20;;;12.90;99.90;;;;;;5019285;28;20919;-84
2021/11/09 11:47:18;;;;;;;10.73;3.22;;;13.00;99.90;;;;;;5015955;28;20748;-83
2021/11/09 11:49:53;;;;;;;23.45;4.00;;;13.20;99.90;;;;;;5039247;28;20840;-85
2021/11/09 11:52:26;;;;;;;8.50;2.97;;;13.20;99.90;;;;;;5036890;28;20395;-82
2021/11/09 11:54:56;;;;;;;11.95;3.40;;;12.90;99.90;;;;;;5027853;28;20392;-84
2021/11/09 11:57:26;;;;;;;10.13;2.58;;;12.80;99.90;;;;;;5039628;28;20421;-82
2021/11/09 11:59:53;;;;;;;9.90;3.00;;;12.90;99.90;;;;;;5036449;28;20447;-83
2021/11/09 12:02:34;;;;;;;14.53;3.30;;;12.80;99.90;;;;;;5035414;28;20432;-84
2021/11/09 12:05:00;;;;;;;9.93;3.40;;;12.80;99.90;;;;;;5031460;28;20757;-83
2021/11/09 12:07:55;;;;;;;9.53;3.50;;;12.70;99.90;;;;;;5044418;28;20397;-82
2021/11/09 12:10:35;;;;;;;13.57;3.90;;;12.70;99.90;;;;;;5031743;28;20889;-82
2021/11/09 12:13:09;;;;;;;12.02;4.05;;;12.60;99.90;;;;;;5034846;28;20387;-82
2021/11/09 12:16:00;;;;;;;8.43;3.75;;;12.60;99.90;;;;;;5032284;28;20498;-83
2021/11/09 12:18:32;;;;;;;9.90;3.60;;;12.70;99.90;;;;;;5047480;28;20391;-83
2021/11/09 12:21:34;;;;;;;5.65;2.40;;;12.60;99.90;;;;;;5048480;28;20626;-83
2021/11/09 12:24:19;;;;;;;7.07;2.75;;;12.50;99.90;;;;;;5045680;28;20858;-83
2021/11/09 12:26:58;;;;;;;3.35;1.98;;;12.60;99.90;;;;;;5046688;28;20376;-83
2021/11/09 12:29:35;;;;;;;5.60;2.25;;;12.70;99.90;;;;;;5046817;28;20418;-82
2021/11/09 12:32:24;;;;;;;4.93;1.92;;;12.80;99.90;;;;;;5048360;28;20445;-82
2021/11/09 12:35:05;;;;;;;3.87;1.50;;;13.00;99.90;;;;;;5043836;28;20383;-84
2021/11/09 12:37:37;;;;;;;5.10;1.60;;;13.00;99.90;;;;;;5035098;28;20477;-83
2021/11/09 12:40:33;;;;;;;5.32;1.95;;;12.80;99.90;;;;;;5051616;28;20376;-82
2021/11/09 12:43:20;;;;;;;7.63;2.30;;;12.70;99.90;;;;;;5046506;28;20392;-83
2021/11/09 12:45:51;;;;;;;4.13;1.73;;;12.70;99.90;;;;;;5038351;28;20423;-83
2021/11/09 12:48:26;;;;;;;3.92;1.70;;;12.70;99.90;;;;;;5051692;28;20376;-84
2021/11/09 12:51:02;;;;;;;3.72;1.48;;;12.70;99.90;;;;;;5049816;28;20396;-84
2021/11/09 12:53:28;;;;;;;5.30;1.80;;;12.80;99.90;;;;;;5051575;28;20474;-82
2021/11/09 12:56:09;;;;;;;4.47;1.60;;;13.00;99.90;;;;;;5051313;28;20459;-83
2021/11/09 12:58:45;;;;;;;4.50;1.70;;;13.00;99.90;;;;;;5051613;28;20442;-82
2021/11/09 13:07:19;;;;;;;4.20;1.75;;;13.00;99.90;;;;;;5051530;28;20419;-84
2021/11/09 13:09:48;;;;;;;4.37;1.47;;;13.00;99.90;;;;;;5050863;28;20885;-84
2021/11/09 13:12:29;;;;;;;3.60;1.60;;;13.20;99.90;;;;;;5051086;28;20379;-84
2021/11/09 13:15:01;;;;;;;5.97;1.75;;;13.30;99.90;;;;;;5049684;28;20483;-82
2021/11/09 13:17:35;;;;;;;6.10;1.38;;;13.40;99.90;;;;;;5050041;28;20503;-83
2021/11/09 13:20:07;;;;;;;5.68;1.85;;;13.40;99.90;;;;;;5050932;28;20376;-82
2021/11/09 13:22:33;;;;;;;6.33;1.90;;;13.30;99.90;;;;;;5051171;28;20466;-81
2021/11/09 13:25:08;;;;;;;6.63;1.80;;;13.10;99.90;;;;;;5049285;28;20454;-81
2021/11/09 13:27:46;;;;;;;5.38;1.70;;;13.10;99.90;;;;;;5050780;28;20786;-81
2021/11/09 13:30:18;;;;;;;5.07;1.80;;;13.00;99.90;;;;;;5049217;28;20887;-82
2021/11/09 13:32:47;;;;;;;4.78;1.63;;;13.00;99.90;;;;;;5049356;28;20395;-83
2021/11/09 13:35:19;;;;;;;4.68;1.83;;;13.00;99.90;;;;;;5050475;28;21117;-82
2021/11/09 13:37:46;;;;;;;6.25;2.03;;;12.90;99.90;;;;;;5049415;28;20758;-81
2021/11/09 13:40:12;;;;;;;6.80;1.90;;;12.60;99.90;;;;;;5048961;28;20372;-82
2021/11/09 13:42:38;;;;;;;8.30;2.00;;;12.50;99.90;;;;;;5049384;28;20379;-81
2021/11/09 13:45:14;;;;;;;4.68;1.73;;;12.30;99.90;;;;;;5050121;28;20472;-84
2021/11/09 13:47:40;;;;;;;5.50;1.85;;;12.30;99.90;;;;;;5041791;28;20395;-83
2021/11/09 13:50:10;;;;;;;7.07;1.90;;;12.20;99.90;;;;;;5050211;28;20392;-81
2021/11/09 13:52:49;;;;;;;4.78;1.77;;;12.10;99.90;;;;;;5049043;28;20441;-82
2021/11/09 13:55:18;;;;;;;6.43;2.20;;;12.00;99.90;;;;;;5050156;28;20813;-84
2021/11/09 13:57:44;;;;;;;5.07;2.00;;;11.90;99.90;;;;;;5048779;28;20882;-82
2021/11/09 14:00:24;;;;;;;5.45;2.10;;;11.90;99.90;;;;;;5049780;28;20498;-85
2021/11/09 14:03:20;;;;;;;7.63;2.28;;;11.80;99.90;;;;;;5236186;22;20429;-83
2021/11/09 14:06:09;;;;;;;5.10;1.80;;;11.80;99.90;;;;;;5067976;28;20378;-82
2021/11/09 14:14:05;;;;;;;5.82;2.30;;;11.50;99.90;;;;;;5065893;28;20424;-82
2021/11/09 14:16:44;;;;;;;4.63;2.30;;;11.40;99.90;;;;;;5059234;28;20894;-84
2021/11/09 14:19:13;;;;;;;6.40;2.70;;;11.30;99.90;;;;;;5073086;28;20402;-83
2021/11/09 14:21:46;;;;;;;6.10;3.03;;;11.20;99.90;;;;;;5064527;28;20472;-84
2021/11/09 14:24:19;;;;;;;6.88;2.70;;;11.20;99.90;;;;;;5067554;28;20374;-83
2021/11/09 14:26:47;;;;;;;5.72;2.67;;;11.10;99.90;;;;;;5055679;28;20378;-82
2021/11/09 14:29:36;;;;;;;6.43;2.40;;;11.10;99.90;;;;;;5059047;28;20410;-81
2021/11/09 14:32:17;;;;;;;6.72;3.00;;;11.00;99.90;;;;;;5066955;28;20451;-82
2021/11/09 14:35:08;;;;;;;5.28;2.63;;;11.10;99.90;;;;;;5071277;28;20451;-82
2021/11/09 14:38:01;;;;;;;5.25;2.80;;;11.00;99.90;;;;;;5072286;28;20413;-84
2021/11/09 14:40:52;;;;;;;3.23;2.50;;;11.00;99.90;;;;;;5052681;28;20413;-81
2021/11/09 14:43:38;;;;;;;4.45;2.15;;;10.90;99.90;;;;;;5073565;28;20398;-82
2021/11/09 14:46:28;;;;;;;4.55;2.17;;;10.90;99.90;;;;;;5067316;28;20397;-83
2021/11/09 14:49:09;;;;;;;4.07;1.90;;;10.80;99.90;;;;;;5053331;28;20482;-84
2021/11/09 14:51:35;;;;;;;4.40;2.20;;;10.70;99.90;;;;;;5066810;28;20408;-82
2021/11/09 14:56:37;;;;;;;4.38;2.00;;;10.50;99.90;;;;;;5067069;28;20786;-84
2021/11/09 14:59:07;;;;;;;6.63;2.10;;;10.50;99.90;;;;;;5067117;28;20755;-84
2021/11/09 15:02:03;;;;;;;5.38;2.30;;;10.40;99.90;;;;;;5070559;28;20389;-82
2021/11/09 15:04:43;;;;;;;5.20;2.45;;;10.30;99.90;;;;;;5057696;28;20997;-85
2021/11/09 15:26:14;;;;;;;5.20;3.00;;;9.30;99.90;;;;;;5066729;28;20424;-84
2021/11/09 15:31:22;;;;;;;6.70;3.00;;;9.00;99.90;;;;;;5063072;28;20963;-82
2021/11/09 15:33:51;;;;;;;7.25;2.38;;;8.80;99.90;;;;;;5057819;28;20915;-81
2021/11/09 15:38:47;;;;;;;4.30;2.72;;;8.50;99.90;;;;;;5066669;28;20587;-84
2021/11/09 15:41:13;;;;;;;5.68;3.10;;;8.40;99.90;;;;;;5055838;28;20448;-83
2021/11/09 15:43:39;;;;;;;6.97;3.90;;;8.30;99.90;;;;;;5055029;28;20386;-83
2021/11/09 15:46:08;;;;;;;6.55;3.60;;;8.20;99.90;;;;;;5058767;28;20381;-84
2021/11/09 15:48:34;;;;;;;6.03;3.60;;;8.10;99.90;;;;;;5065640;28;20407;-83
2021/11/09 15:51:01;;;;;;;7.75;3.63;;;7.90;99.90;;;;;;5067273;28;20370;-85
2021/11/09 15:53:28;;;;;;;4.95;2.90;;;7.90;99.90;;;;;;5067331;28;20397;-83
2021/11/09 15:55:54;;;;;;;5.88;2.63;;;7.80;99.90;;;;;;5057204;28;20389;-84
2021/11/09 15:58:20;;;;;;;6.33;2.80;;;7.70;99.90;;;;;;5065860;28;20382;-84
2021/11/09 16:00:47;;;;;;;6.00;2.70;;;7.60;99.90;;;;;;5065137;28;20374;-83
2021/11/09 16:03:13;;;;;;;6.63;2.72;;;7.50;99.90;;;;;;5045756;28;20441;-85
2021/11/09 16:05:41;;;;;;;3.80;2.60;;;7.40;99.90;;;;;;5067167;28;20896;-82